• Join FlightAware (Why Join?)
  • Login
  • US Flag 
Rudolph Flight #1: Arrived! 
07:19PM EST


 

Airport Tracker/Info


-or-


 

Live Flight TrackerFlight Track Log ✈ SWA2058 ✈ 20-Apr-2013 ✈ KLAS - KAUS

Flight Track Log - Related Links

Times and Time Zones

All times are in EDT time to prevent confusion due to time zone crossing. See the SWA2058 flight status page for this flight to view local times or setup timezone preferences in your user account.

Time Position Orientation Groundspeed Altitude Reporting Facility
EDT Latitude Longitude Course Direction KTS MPH feet Rate Location/Type
09:10PM 36.0750 -115.1633 257° West 191 220 3,300  Level Los Angeles Center
09:11PM 36.0569 -115.2594 257° West 269 310 6,100 1,860 Climbing Los Angeles Center
09:12PM 36.0244 -115.2756 202° Southwest 277 319 7,000 1,080 Climbing Los Angeles Center
09:12PM 35.9847 -115.2939 200° South 287 330 7,200 2,280 Climbing Los Angeles Center
09:13PM 35.9333 -115.2775 166° South 295 339 9,400 3,000 Climbing Los Angeles Center
09:14PM 35.9219 -115.1714 98° East 320 368 12,200 2,820 Climbing Los Angeles Center
09:15PM 35.9236 -115.0503 89° East 348 400 15,200 2,820 Climbing Los Angeles Center
09:16PM 35.9231 -114.9214 90° East 367 422 18,100 2,640 Climbing Los Angeles Center
09:17PM 35.9228 -114.7811 90° East 401 461 20,700 2,400 Climbing Los Angeles Center
09:18PM 35.9236 -114.6372 90° East 416 479 23,100 2,280 Climbing Los Angeles Center
09:19PM 35.9239 -114.4861 90° East 437 503 25,400 2,220 Climbing Los Angeles Center
09:20PM 35.9236 -114.2986 90° East 455 524 27,700 1,860 Climbing Los Angeles Center
09:21PM 35.9228 -114.1347 90° East 474 545 29,300 1,500 Climbing Los Angeles Center
09:22PM 35.8697 -113.9783 113° Southeast 496 571 30,800 1,320 Climbing Los Angeles Center
09:23PM 35.7981 -113.8253 120° Southeast 510 587 32,100 1,560 Climbing Los Angeles Center
09:24PM 35.7239 -113.6703 120° Southeast 521 600 34,000 1,560 Climbing Los Angeles Center
09:25PM 35.6483 -113.5092 120° Southeast 515 593 35,400 1,440 Climbing Los Angeles Center
09:26PM 35.5772 -113.3583 120° Southeast 512 589 37,000 1,260 Climbing Los Angeles Center
09:27PM 35.5086 -113.2164 121° Southeast 509 586 38,000 780 Climbing Los Angeles Center
09:28PM 35.4369 -113.0658 120° Southeast 509 586 38,700 480 Climbing Los Angeles Center
09:29PM 35.3633 -112.9081 120° Southeast 522 601 39,000 120 Climbing Los Angeles Center
09:30PM 35.3286 -112.7667 107° East 514 592 39,000  Level Albuquerque Center
09:31PM 35.2847 -112.5881 107° East 516 594 39,000  Level Albuquerque Center
09:32PM 35.2422 -112.4225 107° East 514 592 39,000  Level Albuquerque Center
09:33PM 35.1992 -112.2561 108° East 515 593 39,000  Level Albuquerque Center
09:34PM 35.1569 -112.0900 107° East 515 593 39,000  Level Albuquerque Center
09:35PM 35.1125 -111.9242 108° East 516 594 39,000  Level Albuquerque Center
09:36PM 35.0686 -111.7575 108° East 518 596 39,000  Level Albuquerque Center
09:37PM 35.0261 -111.5936 108° East 519 597 39,000  Level Albuquerque Center
09:38PM 34.9811 -111.4256 108° East 520 598 39,000  Level Albuquerque Center
09:39PM 34.9372 -111.2581 108° East 520 598 39,000  Level Albuquerque Center
09:40PM 34.8925 -111.0906 108° East 520 598 39,000  Level Albuquerque Center
09:41PM 34.8478 -110.9214 108° East 522 601 39,000  Level Albuquerque Center
09:42PM 34.7961 -110.7325 108° East 521 600 39,000  Level Albuquerque Center
09:43PM 34.7531 -110.5717 108° East 522 601 39,000  Level Albuquerque Center
09:44PM 34.7011 -110.3858 109° East 522 601 39,000  Level Albuquerque Center
09:45PM 34.6547 -110.2250 109° East 524 603 39,000  Level Albuquerque Center
09:46PM 34.6014 -110.0361 109° East 529 609 39,000  Level Albuquerque Center
09:47PM 34.5542 -109.8711 109° East 538 619 39,000  Level Albuquerque Center
09:48PM 34.5108 -109.7114 108° East 530 610 39,000  Level Albuquerque Center
09:49PM 34.4572 -109.5236 109° East 529 609 39,000  Level Albuquerque Center
09:50PM 34.4125 -109.3625 109° East 529 609 39,000  Level Albuquerque Center
09:51PM 34.3656 -109.2011 109° East 531 611 39,000  Level Albuquerque Center
09:52PM 34.3114 -109.0153 109° East 528 608 39,000  Level Albuquerque Center
09:53PM 34.2664 -108.8639 110° East 526 605 39,000  Level Albuquerque Center
09:54PM 34.2167 -108.6950 110° East 532 612 39,000  Level Albuquerque Center
09:55PM 34.1678 -108.5272 109° East 533 613 39,000  Level Albuquerque Center
09:56PM 34.1181 -108.3611 110° East 532 612 39,000  Level Albuquerque Center
09:57PM 34.0675 -108.1922 110° East 536 617 39,000  Level Albuquerque Center
09:58PM 34.0119 -108.0114 110° East 537 618 39,000  Level Albuquerque Center
09:59PM 33.9611 -107.8414 110° East 538 619 39,000  Level Albuquerque Center
10:00PM 33.9097 -107.6719 110° East 539 620 39,000  Level Albuquerque Center
10:01PM 33.8589 -107.5014 110° East 541 623 39,000  Level Albuquerque Center
10:02PM 33.8072 -107.3339 110° East 537 618 39,000  Level Albuquerque Center
10:03PM 33.7547 -107.1667 111° Southeast 535 616 39,000  Level Albuquerque Center
10:04PM 33.7028 -106.9981 110° East 536 617 39,000  Level Albuquerque Center
10:05PM 33.6394 -106.7961 111° Southeast 537 618 39,000  Level Albuquerque Center
10:06PM 33.5869 -106.6275 110° East 539 620 39,000  Level Albuquerque Center
10:07PM 33.5336 -106.4600 111° Southeast 537 618 39,000  Level Albuquerque Center
10:08PM 33.4803 -106.2911 111° Southeast 539 620 39,000  Level Albuquerque Center
10:09PM 33.4264 -106.1222 111° Southeast 541 623 39,000  Level Albuquerque Center
10:10PM 33.3725 -105.9533 111° Southeast 542 624 39,000  Level Albuquerque Center
10:11PM 33.3175 -105.7831 111° Southeast 546 628 39,000  Level Albuquerque Center
10:12PM 33.2625 -105.6147 111° Southeast 545 627 39,000  Level Albuquerque Center
10:13PM 33.2036 -105.4347 111° Southeast 544 626 39,000  Level Albuquerque Center
10:15PM 33.1486 -105.2681 111° Southeast 542 624 39,000  Level Albuquerque Center
10:16PM 33.0900 -105.0900 111° Southeast 540 621 39,000  Level Albuquerque Center
10:17PM 33.0361 -104.9247 111° Southeast 538 619 39,000  Level Albuquerque Center
10:18PM 32.9806 -104.7608 112° Southeast 538 619 39,000  Level Albuquerque Center
10:19PM 32.9261 -104.5958 111° Southeast 539 620 39,000  Level Albuquerque Center
10:20PM 32.8681 -104.4194 111° Southeast 536 617 39,000  Level Albuquerque Center
10:21PM 32.8119 -104.2550 112° Southeast 540 621 39,000  Level Albuquerque Center
10:22PM 32.7578 -104.0906 111° Southeast 539 620 39,000  Level Albuquerque Center
10:23PM 32.7014 -103.9278 112° Southeast 536 617 39,000  Level Albuquerque Center
10:24PM 32.6453 -103.7661 112° Southeast 539 620 39,000  Level Albuquerque Center
10:25PM 32.5919 -103.6017 111° Southeast 536 617 39,000  Level Albuquerque Center
10:26PM 32.5325 -103.4364 113° Southeast 544 626 39,000  Level Albuquerque Center
10:27PM 32.4750 -103.2786 113° Southeast 529 609 39,000  Level Fort Worth Center
10:28PM 32.4178 -103.1125 112° Southeast 529 609 39,000  Level Fort Worth Center
10:29PM 32.3583 -102.9489 113° Southeast 529 609 39,000  Level Fort Worth Center
10:30PM 32.2986 -102.7856 113° Southeast 529 609 39,000  Level Fort Worth Center
10:31PM 32.2411 -102.6178 112° Southeast 534 615 39,000  Level Fort Worth Center
10:32PM 32.1789 -102.4522 114° Southeast 534 615 39,000  Level Fort Worth Center
10:33PM 32.1306 -102.3047 111° Southeast 539 620 39,000  Level Fort Worth Center
10:34PM 32.0722 -102.1350 112° Southeast 539 620 39,000  Level Fort Worth Center
10:35PM 32.0097 -101.9675 114° Southeast 547 629 39,000  Level Fort Worth Center
10:36PM 31.9508 -101.8031 113° Southeast 547 629 39,000  Level Fort Worth Center
10:37PM 31.8917 -101.6389 113° Southeast 547 629 39,000  Level Fort Worth Center
10:38PM 31.8303 -101.4747 114° Southeast 547 629 39,000  Level Fort Worth Center
10:39PM 31.7708 -101.3131 113° Southeast 542 624 39,000  Level Fort Worth Center
10:40PM 31.7089 -101.1519 114° Southeast 542 624 39,000  Level Fort Worth Center
10:41PM 31.6489 -100.9908 114° Southeast 537 618 39,000  Level Fort Worth Center
10:42PM 31.5886 -100.8325 114° Southeast 537 618 39,000  Level Fort Worth Center
10:43PM 31.4750 -100.5322 114° Southeast 530 610 39,000  Level Houston Center
10:44PM 31.4158 -100.3775 114° Southeast 524 603 39,000  Level Houston Center
10:45PM 31.3561 -100.2225 114° Southeast 521 600 39,000  Level Houston Center
10:46PM 31.2969 -100.0686 114° Southeast 519 597 39,000  Level Houston Center
10:47PM 31.2392 -99.9164 114° Southeast 514 592 39,000  Level Houston Center
10:48PM 31.1800 -99.7642 114° Southeast 514 592 39,000 -900 Level Houston Center
10:50PM 31.1125 -99.6197 119° Southeast 507 583 37,200 -2,460 Descending Houston Center
10:51PM 31.0433 -99.4678 118° Southeast 523 602 34,100 -3,300 Descending Houston Center
10:52PM 30.9694 -99.3089 118° Southeast 547 629 30,600 -3,240 Descending Houston Center
10:53PM 30.8922 -99.1442 119° Southeast 543 625 27,600 -1,920 Descending Houston Center
10:54PM 30.8222 -98.9936 118° Southeast 530 610 26,800 -1,920 Descending Houston Center
10:55PM 30.7531 -98.8444 118° Southeast 520 598 23,800 -2,880 Descending Houston Center
10:56PM 30.6869 -98.7033 119° Southeast 499 574 21,000 -2,640 Descending Houston Center
10:57PM 30.6250 -98.5731 119° Southeast 462 532 18,500 -2,880 Descending Houston Center
10:58PM 30.5678 -98.4519 119° Southeast 430 495 15,300 -3,060 Descending Houston Center
10:59PM 30.5136 -98.3319 118° Southeast 420 483 12,400 -2,340 Descending Houston Center
11:00PM 30.4858 -98.2169 106° East 368 423 10,700 -1,440 Descending Houston Center
11:01PM 30.4603 -98.1119 106° East 339 390 9,500 -1,440 Descending Houston Center
11:02PM 30.4361 -98.0169 106° East 313 360 7,900 -1,500 Descending Houston Center
11:03PM 30.4133 -97.9214 105° East 308 354 6,500 -1,020 Descending Houston Center
11:04PM 30.3917 -97.8353 106° East 287 330 5,900 -600 Descending Houston Center
11:05PM 30.3733 -97.7633 106° East 247 284 5,400 -780 Descending Houston Center
11:06PM 30.3600 -97.7089 106° East 194 223 4,400 -1,260 Descending Houston Center
11:07PM 30.3350 -97.6811 136° Southeast 147 169 2,900 -1,140 Descending Houston Center
11:08PM 30.3011 -97.6817 181° South 125 144 2,200 -660 Descending Houston Center
11:09PM 30.2703 -97.6814 180° South 114 131 1,600 -600 Descending Houston Center
11:10PM 30.2425 -97.6803 178° South 114 131 1,100 -540 Descending Houston Center
11:12PM 30.1945 -97.6699 221° Southwest  Level Estimated
11:19PM 30.1945 -97.6699 221° Southwest  Level Estimated